Time;durP1;ratioP1;P1;durP2;ratioP2;P2;SDS_P1;SDS_P2;PMS_P1;PMS_P2;Temp;Humidity;BMP_temperature;BMP_pressure;BME280_temperature;BME280_humidity;BME280_pressure;Samples;Min_cycle;Max_cycle;Signal;HPM_P1;HPM_P2
2022/09/09 00:02:20;;;;;;;37.20;7.30;;;;;;;16.66;100.00;100499.03;4972080;28;20047;-90
2022/09/09 00:05:02;;;;;;;25.60;6.20;;;;;;;16.76;100.00;100490.47;4975272;28;20500;-90
2022/09/09 00:07:51;;;;;;;26.85;7.45;;;;;;;16.65;100.00;100467.41;4987470;28;20125;-90
2022/09/09 00:10:33;;;;;;;30.40;7.10;;;;;;;16.91;100.00;100486.84;4978227;28;20054;-90
2022/09/09 00:13:19;;;;;;;34.73;7.27;;;;;;;16.75;100.00;100500.22;4983313;28;20050;-90
2022/09/09 00:15:59;;;;;;;27.05;6.28;;;;;;;16.82;100.00;100498.84;4978636;28;20488;-89
2022/09/09 00:18:41;;;;;;;34.13;7.03;;;;;;;16.69;100.00;100503.25;4965253;28;20097;-89
2022/09/09 00:21:17;;;;;;;24.70;6.20;;;;;;;16.68;100.00;100496.28;4987602;28;20452;-90
2022/09/09 00:23:50;;;;;;;25.17;5.38;;;;;;;16.67;100.00;100494.59;4988361;28;20670;-90
2022/09/09 00:26:30;;;;;;;20.67;4.65;;;;;;;16.66;100.00;100503.44;4970023;28;20050;-90
2022/09/09 00:29:11;;;;;;;24.15;5.00;;;;;;;16.64;100.00;100494.78;4972862;28;20047;-90
2022/09/09 00:31:38;;;;;;;22.17;4.75;;;;;;;16.54;100.00;100486.63;4971686;28;20050;-91
2022/09/09 00:34:13;;;;;;;23.13;5.32;;;;;;;16.44;100.00;100506.69;4978012;28;20058;-90
2022/09/09 00:36:41;;;;;;;22.15;5.78;;;;;;;16.51;100.00;100489.47;4987106;28;20049;-90
2022/09/09 00:39:20;;;;;;;23.92;5.15;;;;;;;16.70;100.00;100511.09;4977089;28;20452;-89
2022/09/09 00:42:08;;;;;;;22.00;4.85;;;;;;;16.84;100.00;100509.34;4966934;28;20047;-90
2022/09/09 00:44:39;;;;;;;20.35;5.85;;;;;;;16.60;100.00;100494.13;4984482;28;20050;-89
2022/09/09 00:47:35;;;;;;;33.20;6.43;;;;;;;16.56;100.00;100516.44;4977577;28;20042;-90
2022/09/09 00:50:29;;;;;;;28.02;6.50;;;;;;;16.65;100.00;100499.13;4974587;28;20642;-89
2022/09/09 00:53:05;;;;;;;33.45;7.10;;;;;;;16.70;100.00;100500.50;5003781;28;20050;-90
2022/09/09 00:55:47;;;;;;;28.98;6.75;;;;;;;16.62;100.00;100500.16;4994484;28;20085;-89
2022/09/09 00:58:15;;;;;;;38.13;8.30;;;;;;;16.35;100.00;100479.06;4972140;28;20054;-90
2022/09/09 01:00:47;;;;;;;38.35;6.45;;;;;;;16.47;100.00;100520.53;4977621;28;20098;-89
2022/09/09 01:03:32;;;;;;;31.85;7.90;;;;;;;16.33;100.00;100516.16;4964046;28;20047;-89
2022/09/09 01:06:31;;;;;;;33.60;6.68;;;;;;;16.37;100.00;100508.88;4995096;28;20050;-89
2022/09/09 01:09:01;;;;;;;28.73;6.65;;;;;;;16.42;100.00;100512.06;4983542;28;20054;-90
2022/09/09 01:11:43;;;;;;;36.63;6.82;;;;;;;16.17;100.00;100475.84;4967923;28;20077;-90
2022/09/09 01:14:30;;;;;;;39.10;8.23;;;;;;;16.14;100.00;100460.19;4958585;28;20058;-87
2022/09/09 01:17:32;;;;;;;30.05;7.63;;;;;;;16.48;100.00;100509.03;4987837;28;20054;-89
2022/09/09 01:20:04;;;;;;;31.20;7.88;;;;;;;16.33;100.00;100502.09;4972722;28;20054;-89
2022/09/09 01:22:34;;;;;;;32.90;7.95;;;;;;;16.30;100.00;100511.06;4977069;28;20050;-89
2022/09/09 01:25:13;;;;;;;33.67;6.85;;;;;;;16.59;100.00;100523.31;4976452;28;20058;-90
2022/09/09 01:27:43;;;;;;;32.60;7.05;;;;;;;16.41;100.00;100497.16;4966505;28;20469;-89
2022/09/09 01:30:12;;;;;;;40.40;8.73;;;;;;;16.35;100.00;100515.22;4976831;28;20124;-89
2022/09/09 01:32:49;;;;;;;36.88;8.20;;;;;;;16.45;100.00;100501.31;4972716;28;20054;-89
2022/09/09 01:35:28;;;;;;;40.88;7.85;;;;;;;16.53;100.00;100516.63;4972731;28;20050;-89
2022/09/09 01:37:54;;;;;;;36.88;8.57;;;;;;;16.40;100.00;100505.19;4974640;28;20412;-87
2022/09/09 01:40:21;;;;;;;32.78;6.65;;;;;;;16.20;100.00;100486.22;4976990;28;20050;-88
2022/09/09 01:42:48;;;;;;;37.50;8.38;;;;;;;16.13;100.00;100501.59;4974612;28;20057;-88
2022/09/09 01:45:15;;;;;;;34.15;7.85;;;;;;;16.28;100.00;100512.97;4977106;28;20543;-88
2022/09/09 01:47:42;;;;;;;25.40;7.40;;;;;;;16.45;100.00;100508.34;4976657;28;20038;-87
2022/09/09 01:50:13;;;;;;;27.90;6.88;;;;;;;16.43;100.00;100511.13;4976856;28;20104;-87
2022/09/09 01:52:42;;;;;;;27.50;6.18;;;;;;;16.32;100.00;100505.69;4976422;28;20054;-87
2022/09/09 01:55:09;;;;;;;21.23;5.63;;;;;;;16.29;100.00;100490.06;4976577;28;20087;-87
2022/09/09 01:57:50;;;;;;;33.40;7.22;;;;;;;16.27;100.00;100513.94;4960934;28;20117;-88
2022/09/09 02:00:17;;;;;;;46.38;7.28;;;;;;;16.26;100.00;100514.84;4982962;28;20058;-87
2022/09/09 02:02:52;;;;;;;30.10;7.15;;;;;;;16.22;100.00;100525.72;4976105;28;20050;-84
2022/09/09 02:05:39;;;;;;;27.80;6.22;;;;;;;16.51;100.00;100521.19;4963989;28;20050;-87
2022/09/09 02:08:20;;;;;;;29.02;6.97;;;;;;;16.49;100.00;100513.34;4973523;28;20054;-85
2022/09/09 02:11:13;;;;;;;27.45;5.70;;;;;;;16.61;100.00;100519.63;4992680;28;20101;-86
2022/09/09 02:13:42;;;;;;;29.30;7.30;;;;;;;16.40;100.00;100507.84;4962430;28;20054;-87
2022/09/09 02:16:12;;;;;;;22.48;5.85;;;;;;;16.31;100.00;100530.44;4976215;28;20452;-87
2022/09/09 02:18:47;;;;;;;19.13;5.05;;;;;;;16.19;100.00;100534.69;4980274;28;20081;-87
2022/09/09 02:21:16;;;;;;;25.92;5.20;;;;;;;15.98;100.00;100526.34;4974399;28;20124;-87
2022/09/09 02:23:46;;;;;;;31.90;5.53;;;;;;;15.90;100.00;100526.84;4993157;28;20050;-87
2022/09/09 02:26:20;;;;;;;22.88;4.63;;;;;;;15.79;100.00;100545.13;4965144;28;20047;-88
2022/09/09 02:28:49;;;;;;;23.23;4.88;;;;;;;16.05;100.00;100535.56;4988253;28;20100;-87
2022/09/09 02:31:21;;;;;;;22.95;4.38;;;;;;;15.90;100.00;100540.06;4975587;28;20092;-87
2022/09/09 02:33:53;;;;;;;27.73;4.30;;;;;;;16.05;100.00;100526.81;4963089;28;20047;-87
2022/09/09 02:36:23;;;;;;;20.60;4.53;;;;;;;16.09;100.00;100547.63;4963425;28;20050;-88
2022/09/09 02:38:53;;;;;;;30.77;5.20;;;;;;;15.86;100.00;100557.00;4964233;28;20058;-88
2022/09/09 02:41:28;;;;;;;36.72;6.05;;;;;;;15.91;100.00;100538.25;4975590;28;20456;-88
2022/09/09 02:43:54;;;;;;;27.25;5.75;;;;;;;15.96;100.00;100541.44;4975634;28;20057;-87
2022/09/09 02:46:28;;;;;;;23.05;4.95;;;;;;;16.06;100.00;100562.81;4975600;28;20046;-87
2022/09/09 02:49:03;;;;;;;29.65;5.13;;;;;;;16.12;100.00;100573.00;4973999;28;20054;-88
2022/09/09 02:51:36;;;;;;;23.02;4.72;;;;;;;16.12;100.00;100565.09;4973819;28;20051;-88
2022/09/09 02:54:16;;;;;;;29.77;5.55;;;;;;;16.23;100.00;100561.75;4974400;28;20440;-88
2022/09/09 02:56:51;;;;;;;30.45;7.25;;;;;;;16.04;100.00;100543.59;4973107;28;20046;-88
2022/09/09 02:59:18;;;;;;;18.15;4.63;;;;;;;16.03;100.00;100534.00;4992804;28;20054;-87
2022/09/09 03:01:45;;;;;;;23.50;5.95;;;;;;;16.32;100.00;100562.03;4974448;28;20104;-87
2022/09/09 03:04:11;;;;;;;25.50;5.28;;;;;;;16.05;100.00;100534.72;4992468;28;20792;-87
2022/09/09 03:06:38;;;;;;;33.00;6.25;;;;;;;16.13;100.00;100527.19;4973659;28;20046;-87
2022/09/09 03:09:05;;;;;;;26.02;5.45;;;;;;;16.35;100.00;100547.75;4975047;28;20369;-89
2022/09/09 03:11:32;;;;;;;37.50;7.30;;;;;;;16.06;100.00;100507.38;4969680;28;20098;-89
2022/09/09 03:13:58;;;;;;;36.42;7.10;;;;;;;16.25;100.00;100541.38;4973573;28;20128;-88
2022/09/09 03:16:25;;;;;;;33.75;6.47;;;;;;;16.38;100.00;100546.69;4993178;28;20651;-89
2022/09/09 03:18:52;;;;;;;45.20;8.70;;;;;;;15.91;100.00;100522.41;4991980;28;20054;-86
2022/09/09 03:21:19;;;;;;;37.60;9.50;;;;;;;15.96;100.00;100537.97;4990692;28;20096;-87
2022/09/09 03:23:46;;;;;;;37.38;7.53;;;;;;;15.85;100.00;100550.03;4965503;28;20097;-89
2022/09/09 03:26:14;;;;;;;29.75;6.72;;;;;;;15.91;100.00;100525.88;4970851;28;20097;-89
2022/09/09 03:28:43;;;;;;;26.50;5.75;;;;;;;15.92;100.00;100506.47;4984340;28;20504;-88
2022/09/09 03:31:09;;;;;;;31.13;7.25;;;;;;;15.96;100.00;100538.81;4975420;28;20485;-88
2022/09/09 03:33:38;;;;;;;32.25;6.10;;;;;;;15.96;100.00;100573.13;4992517;28;20042;-88
2022/09/09 03:36:07;;;;;;;35.63;7.22;;;;;;;16.03;100.00;100577.09;4996035;28;20046;-87
2022/09/09 03:38:34;;;;;;;35.58;7.22;;;;;;;15.95;100.00;100558.22;4983963;28;20047;-88
2022/09/09 03:41:01;;;;;;;28.95;5.28;;;;;;;16.01;100.00;100551.72;4979291;28;20073;-87
2022/09/09 03:43:29;;;;;;;31.67;6.20;;;;;;;15.81;100.00;100566.16;4967062;28;20061;-88
2022/09/09 03:45:59;;;;;;;37.75;8.63;;;;;;;15.63;100.00;100547.00;4996253;28;20065;-88
2022/09/09 03:48:27;;;;;;;34.17;7.68;;;;;;;15.68;100.00;100539.66;4992348;28;20128;-87
2022/09/09 03:50:57;;;;;;;36.65;6.95;;;;;;;15.63;100.00;100529.38;4979070;28;20047;-88
2022/09/09 03:53:24;;;;;;;30.10;8.25;;;;;;;15.83;100.00;100580.09;4995935;28;20416;-88
2022/09/09 03:55:54;;;;;;;28.52;6.38;;;;;;;15.98;100.00;100588.88;4995150;28;20078;-87
2022/09/09 03:58:23;;;;;;;34.17;6.28;;;;;;;15.93;100.00;100579.44;4977689;28;20485;-87
2022/09/09 04:00:59;;;;;;;29.77;6.57;;;;;;;16.03;100.00;100584.16;4978212;28;20054;-88
2022/09/09 04:03:26;;;;;;;20.38;5.00;;;;;;;15.93;100.00;100587.34;4978098;28;20058;-88
2022/09/09 04:05:56;;;;;;;29.83;6.63;;;;;;;15.79;100.00;100549.56;4965173;28;20046;-88
2022/09/09 04:08:25;;;;;;;22.13;5.57;;;;;;;16.01;100.00;100586.06;4978521;28;20050;-89
2022/09/09 04:10:53;;;;;;;21.95;5.05;;;;;;;15.86;100.00;100579.94;4994739;28;20058;-89
2022/09/09 04:13:20;;;;;;;25.77;4.97;;;;;;;16.09;100.00;100589.88;4978207;28;20058;-88
2022/09/09 04:15:58;;;;;;;19.70;4.78;;;;;;;15.73;100.00;100556.06;4977811;28;20050;-87
2022/09/09 04:18:25;;;;;;;22.25;3.70;;;;;;;15.75;100.00;100564.75;4994988;28;20053;-87
2022/09/09 04:20:53;;;;;;;20.35;4.78;;;;;;;16.05;100.00;100582.28;4992896;28;20480;-87
2022/09/09 04:23:20;;;;;;;17.40;4.32;;;;;;;15.96;100.00;100553.81;4992068;28;20055;-87
2022/09/09 04:25:48;;;;;;;17.50;3.97;;;;;;;15.94;100.00;100530.13;4971539;28;20055;-88
2022/09/09 04:28:17;;;;;;;18.33;4.20;;;;;;;15.95;100.00;100550.31;4977480;28;20046;-89
2022/09/09 04:30:44;;;;;;;25.70;5.70;;;;;;;16.06;100.00;100562.81;4977822;28;20058;-88
2022/09/09 04:33:12;;;;;;;18.20;4.20;;;;;;;16.27;100.00;100576.47;4972445;28;20058;-89
2022/09/09 04:35:44;;;;;;;19.95;4.60;;;;;;;16.03;100.00;100541.91;4975354;28;20120;-88
2022/09/09 04:38:10;;;;;;;21.05;4.95;;;;;;;15.80;100.00;100525.72;4962540;28;20050;-89
2022/09/09 04:40:40;;;;;;;19.80;4.72;;;;;;;15.89;100.00;100524.28;4972637;28;20053;-89
2022/09/09 04:43:07;;;;;;;20.95;4.50;;;;;;;16.19;100.00;100542.63;4977274;28;20058;-88
2022/09/09 04:45:40;;;;;;;17.48;4.07;;;;;;;16.18;100.00;100526.88;4978348;28;20404;-90
2022/09/09 04:48:07;;;;;;;25.42;6.25;;;;;;;16.44;100.00;100567.47;4964725;28;20054;-87
2022/09/09 04:50:34;;;;;;;27.67;5.85;;;;;;;16.41;100.00;100549.16;4964252;28;20042;-88
2022/09/09 04:53:05;;;;;;;29.33;6.93;;;;;;;16.53;100.00;100572.13;4978062;28;20046;-88
2022/09/09 04:55:33;;;;;;;27.80;5.88;;;;;;;16.53;100.00;100572.13;4976570;28;20050;-88
2022/09/09 04:58:06;;;;;;;25.08;6.03;;;;;;;16.45;100.00;100575.28;4973454;28;20070;-88
2022/09/09 05:00:35;;;;;;;25.02;5.88;;;;;;;16.31;100.00;100562.13;4975587;28;20058;-89
2022/09/09 05:03:04;;;;;;;20.20;3.67;;;;;;;16.60;100.00;100575.25;4994754;28;20811;-89
2022/09/09 05:05:34;;;;;;;16.67;4.65;;;;;;;16.55;100.00;100569.41;4977431;28;20050;-88
2022/09/09 05:08:05;;;;;;;19.33;4.97;;;;;;;16.33;100.00;100553.16;4970237;28;20429;-88
2022/09/09 05:10:33;;;;;;;24.02;5.15;;;;;;;16.27;100.00;100579.09;4993260;28;20624;-87
2022/09/09 05:13:00;;;;;;;19.20;5.28;;;;;;;16.08;100.00;100539.84;4967803;28;20054;-86
2022/09/09 05:15:26;;;;;;;28.90;6.57;;;;;;;16.06;100.00;100541.69;4990159;28;20473;-89
2022/09/09 05:18:00;;;;;;;26.90;4.72;;;;;;;16.19;100.00;100547.91;4977767;28;20046;-90
2022/09/09 05:20:27;;;;;;;24.98;5.00;;;;;;;16.14;100.00;100548.19;4980472;28;20620;-89
2022/09/09 05:22:55;;;;;;;28.08;5.07;;;;;;;15.92;100.00;100524.13;4999208;28;20058;-89
2022/09/09 05:25:25;;;;;;;32.72;6.75;;;;;;;15.95;100.00;100550.31;4998764;28;20058;-88
2022/09/09 05:27:53;;;;;;;30.30;6.47;;;;;;;16.20;100.00;100594.53;4987532;28;20055;-86
2022/09/09 05:30:22;;;;;;;34.38;6.03;;;;;;;16.13;100.00;100553.59;4996511;28;20433;-87
2022/09/09 05:32:49;;;;;;;28.60;6.45;;;;;;;16.07;100.00;100554.81;4978429;28;20057;-88
2022/09/09 05:35:18;;;;;;;28.48;6.07;;;;;;;16.32;100.00;100574.38;4976966;28;20054;-87
2022/09/09 05:37:45;;;;;;;24.00;5.43;;;;;;;15.94;100.00;100520.41;4990279;28;20045;-87
2022/09/09 05:40:12;;;;;;;29.02;5.53;;;;;;;16.47;100.00;100609.56;4979204;28;20050;-87
2022/09/09 05:42:40;;;;;;;32.22;7.22;;;;;;;16.19;100.00;100578.75;5002393;28;20098;-90
2022/09/09 05:45:21;;;;;;;30.08;7.45;;;;;;;16.47;100.00;100613.03;4987097;28;20050;-91
2022/09/09 05:48:01;;;;;;;26.52;4.97;;;;;;;16.42;100.00;100566.72;4988580;28;20043;-91
2022/09/09 05:50:44;;;;;;;28.40;6.05;;;;;;;16.69;100.00;100604.53;5008140;28;20081;-91
2022/09/09 05:53:26;;;;;;;34.73;6.90;;;;;;;16.59;100.00;100597.31;4972045;28;20124;-86
2022/09/09 05:56:00;;;;;;;31.70;6.55;;;;;;;16.54;100.00;100597.63;4998239;28;20061;-90
2022/09/09 05:58:27;;;;;;;26.77;5.80;;;;;;;16.56;100.00;100584.31;4977228;28;20109;-90
2022/09/09 06:01:07;;;;;;;23.08;5.30;;;;;;;16.74;100.00;100598.97;4987041;28;20077;-90
2022/09/09 06:03:38;;;;;;;32.60;6.55;;;;;;;16.49;100.00;100581.22;4983605;28;20042;-87
2022/09/09 06:06:08;;;;;;;28.33;6.25;;;;;;;16.68;100.00;100600.22;4981294;28;20489;-87
2022/09/09 06:08:39;;;;;;;46.15;9.00;;;;;;;16.32;100.00;100577.00;4976342;28;20049;-89
2022/09/09 06:11:08;;;;;;;25.48;6.00;;;;;;;16.58;100.00;100580.63;4976864;28;20050;-88
2022/09/09 06:13:38;;;;;;;34.28;7.63;;;;;;;16.47;100.00;100589.25;4973896;28;20050;-89
2022/09/09 06:16:11;;;;;;;36.13;7.88;;;;;;;16.69;100.00;100579.91;4992632;28;20054;-89
2022/09/09 06:18:39;;;;;;;35.25;6.43;;;;;;;16.19;100.00;100523.28;4979363;28;20042;-89
2022/09/09 06:21:11;;;;;;;40.25;8.52;;;;;;;15.94;100.00;100490.53;4979740;28;20051;-90
2022/09/09 06:23:40;;;;;;;29.07;6.47;;;;;;;16.50;100.00;100581.13;4974993;28;20070;-90
2022/09/09 06:26:11;;;;;;;35.95;6.90;;;;;;;16.64;100.00;100622.53;4996480;28;20299;-90
2022/09/09 06:28:38;;;;;;;31.70;6.60;;;;;;;16.81;100.00;100621.41;4979778;28;20058;-89
2022/09/09 06:31:08;;;;;;;36.10;8.55;;;;;;;16.60;100.00;100602.50;4997923;28;20046;-90
2022/09/09 06:33:39;;;;;;;37.35;6.93;;;;;;;16.31;100.00;100586.75;4980439;28;20382;-90
2022/09/09 06:36:18;;;;;;;36.40;7.13;;;;;;;16.47;100.00;100607.75;4977693;28;20403;-90
2022/09/09 06:38:46;;;;;;;34.15;7.20;;;;;;;16.39;100.00;100610.03;4976832;28;20073;-90
2022/09/09 06:41:15;;;;;;;34.58;6.55;;;;;;;16.41;100.00;100608.13;4998842;28;20050;-87
2022/09/09 06:43:43;;;;;;;35.38;8.35;;;;;;;16.54;100.00;100620.56;4989686;28;20061;-93
2022/09/09 06:46:13;;;;;;;25.50;6.50;;;;;;;16.69;100.00;100638.91;4991398;28;20058;-91
2022/09/09 06:48:59;;;;;;;38.38;8.20;;;;;;;16.57;100.00;100620.34;4977883;28;20496;-93
2022/09/09 06:51:43;;;;;;;29.10;6.93;;;;;;;16.79;100.00;100659.50;4993696;28;20089;-93
2022/09/09 06:54:25;;;;;;;30.23;7.72;;;;;;;16.59;100.00;100639.59;4993998;28;20524;-93
2022/09/09 06:57:07;;;;;;;34.03;7.00;;;;;;;16.85;100.00;100667.03;4988235;28;20038;-93
2022/09/09 06:59:48;;;;;;;34.35;6.53;;;;;;;16.58;100.00;100638.78;4978719;28;20054;-92
2022/09/09 07:02:28;;;;;;;33.95;6.90;;;;;;;16.60;100.00;100636.88;4974340;28;20141;-92
2022/09/09 07:05:09;;;;;;;25.23;6.22;;;;;;;16.96;100.00;100650.47;4986645;28;20113;-91
2022/09/09 07:07:50;;;;;;;28.95;6.05;;;;;;;16.90;100.00;100654.38;4985442;28;20039;-93
2022/09/09 07:10:33;;;;;;;37.10;7.32;;;;;;;16.92;100.00;100681.56;4994081;28;20119;-94
2022/09/09 07:13:15;;;;;;;30.08;6.60;;;;;;;17.12;100.00;100687.34;5019164;28;20050;-93
2022/09/09 07:16:07;;;;;;;37.55;7.90;;;;;;;17.31;100.00;100686.97;4974712;28;20046;-91
2022/09/09 07:18:47;;;;;;;34.65;7.32;;;;;;;17.34;100.00;100650.56;4981523;28;20061;-92
2022/09/09 07:21:30;;;;;;;26.73;6.65;;;;;;;17.83;100.00;100686.94;4993707;28;20058;-92
2022/09/09 07:24:11;;;;;;;24.20;6.75;;;;;;;17.58;100.00;100671.91;4991713;28;20085;-93
2022/09/09 07:26:51;;;;;;;29.10;5.90;;;;;;;17.38;100.00;100645.91;4991120;28;20085;-92
2022/09/09 07:29:32;;;;;;;33.50;6.70;;;;;;;17.83;100.00;100675.50;4991870;28;20046;-93
2022/09/09 07:32:13;;;;;;;24.70;6.25;;;;;;;17.93;100.00;100702.22;4980602;28;20504;-93
2022/09/09 07:34:54;;;;;;;26.52;6.32;;;;;;;18.03;100.00;100690.88;4971252;28;20046;-92
2022/09/09 07:37:37;;;;;;;27.33;6.47;;;;;;;17.83;100.00;100678.16;4983161;28;20082;-92
2022/09/09 07:40:17;;;;;;;31.45;6.53;;;;;;;18.06;100.00;100684.53;4990326;28;20046;-92
2022/09/09 07:42:59;;;;;;;44.15;7.97;;;;;;;17.83;100.00;100709.94;4986985;28;20054;-91
2022/09/09 07:45:40;;;;;;;31.30;6.82;;;;;;;18.01;100.00;100707.84;4987084;28;20049;-93
2022/09/09 07:48:20;;;;;;;29.38;6.32;;;;;;;17.78;100.00;100689.06;4990387;28;20046;-93
2022/09/09 07:51:10;;;;;;;30.67;5.30;;;;;;;17.83;100.00;100733.78;4992928;28;20105;-92
2022/09/09 07:53:59;;;;;;;26.80;6.22;;;;;;;17.89;100.00;100724.59;4991839;28;20125;-93
2022/09/09 07:56:41;;;;;;;33.95;6.75;;;;;;;17.80;100.00;100726.03;4993162;28;20114;-93
2022/09/09 07:59:21;;;;;;;29.50;5.95;;;;;;;17.60;100.00;100709.69;4992421;28;20054;-92
2022/09/09 08:02:02;;;;;;;33.05;5.57;;;;;;;17.65;100.00;100717.31;4989225;28;20050;-94
2022/09/09 08:04:42;;;;;;;27.13;5.78;;;;;;;17.73;100.00;100679.75;4988525;28;20117;-91
2022/09/09 08:07:10;;;;;;;26.35;5.82;;;;;;;18.05;100.00;100697.88;5000512;28;20050;-92
2022/09/09 08:09:51;;;;;;;30.02;6.18;;;;;;;17.93;100.00;100688.97;4984670;28;20062;-93
2022/09/09 08:12:27;;;;;;;29.65;6.05;;;;;;;18.20;100.00;100712.69;4987450;28;20055;-93
2022/09/09 08:15:08;;;;;;;26.25;6.28;;;;;;;18.12;100.00;100721.19;4988602;28;20062;-91
2022/09/09 08:17:48;;;;;;;23.63;6.32;;;;;;;18.39;100.00;100709.59;4981586;28;20121;-91
2022/09/09 08:20:29;;;;;;;26.00;5.15;;;;;;;18.78;100.00;100756.28;4979916;28;20051;-93
2022/09/09 08:23:10;;;;;;;28.73;6.47;;;;;;;18.55;100.00;100752.63;4983975;28;20048;-92
2022/09/09 08:25:51;;;;;;;29.13;5.55;;;;;;;18.77;100.00;100773.16;4989823;28;20124;-93
2022/09/09 08:28:31;;;;;;;29.02;6.07;;;;;;;18.46;100.00;100755.09;4985933;28;20061;-93
2022/09/09 08:31:16;;;;;;;23.88;4.95;;;;;;;18.27;100.00;100737.81;4978087;28;20050;-94
2022/09/09 08:33:59;;;;;;;34.10;6.68;;;;;;;18.18;100.00;100744.63;4997058;28;20057;-93
2022/09/09 08:36:42;;;;;;;24.40;6.32;;;;;;;18.29;100.00;100775.69;4982560;28;20034;-93
2022/09/09 08:39:23;;;;;;;31.48;6.55;;;;;;;18.18;100.00;100743.75;4996381;28;20054;-94
2022/09/09 08:42:31;;;;;;;22.83;4.45;;;;;;;18.36;100.00;100753.09;4997271;28;20094;-93
2022/09/09 08:45:19;;;;;;;21.80;5.15;;;;;;;18.15;100.00;100765.16;4998245;28;20038;-93
2022/09/09 08:48:19;;;;;;;24.17;5.78;;;;;;;17.82;100.00;100745.31;4987324;28;20051;-92
2022/09/09 08:51:03;;;;;;;23.08;5.18;;;;;;;18.51;100.00;100784.78;5004909;28;20110;-92
2022/09/09 08:53:48;;;;;;;28.33;5.97;;;;;;;18.18;100.00;100749.06;4982561;28;20047;-92
2022/09/09 08:56:32;;;;;;;19.20;4.13;;;;;;;18.60;100.00;100786.78;4979222;28;20057;-90
2022/09/09 08:59:18;;;;;;;23.63;4.90;;;;;;;18.79;100.00;100768.59;4986214;28;20042;-93
2022/09/09 09:02:22;;;;;;;22.63;4.57;;;;;;;19.10;100.00;100781.47;5000689;28;20050;-91
2022/09/09 09:05:25;;;;;;;;;;;;;;;19.39;100.00;100803.25;4983936;28;20063;-93
2022/09/09 09:08:06;;;;;;;32.03;5.40;;;;;;;19.08;100.00;100812.59;4981506;28;19922;-93
2022/09/09 09:10:54;;;;;;;20.85;4.95;;;;;;;19.08;100.00;100813.44;4986177;28;20034;-93
2022/09/09 09:13:43;;;;;;;24.40;4.25;;;;;;;19.13;100.00;100821.91;5001009;28;20050;-93
2022/09/09 09:16:47;;;;;;;23.50;5.68;;;;;;;19.14;100.00;100815.66;4997714;28;20050;-91
2022/09/09 09:19:30;;;;;;;18.85;5.15;;;;;;;19.13;100.00;100823.72;4980400;28;20047;-93
2022/09/09 09:22:31;;;;;;;24.00;4.90;;;;;;;19.24;100.00;100837.06;4980788;28;20030;-94
2022/09/09 09:25:21;;;;;;;20.50;4.13;;;;;;;19.00;100.00;100802.53;4998864;28;20040;-93
2022/09/09 09:28:17;;;;;;;17.80;4.30;;;;;;;19.02;100.00;100844.91;4998404;28;20061;-94
2022/09/09 09:31:10;;;;;;;18.52;4.45;;;;;;;18.76;100.00;100792.69;4999417;28;20054;-93
2022/09/09 09:33:53;;;;;;;24.27;5.25;;;;;;;18.92;100.00;100832.25;5000411;28;20068;-94
2022/09/09 09:36:39;;;;;;;21.27;4.43;;;;;;;19.11;100.00;100842.41;4999757;28;20097;-94
2022/09/09 09:39:36;;;;;;;16.15;3.70;;;;;;;18.91;100.00;100850.94;4998412;28;20280;-94
2022/09/09 09:42:19;;;;;;;28.38;4.70;;;;;;;18.57;100.00;100821.44;4999037;28;20061;-93
2022/09/09 09:45:20;;;;;;;19.70;4.00;;;;;;;18.58;100.00;100825.81;4983893;28;20053;-93
2022/09/09 09:48:04;;;;;;;21.30;4.90;;;;;;;18.63;100.00;100847.56;4992730;28;20046;-92
2022/09/09 09:51:10;;;;;;;24.00;5.70;;;;;;;17.96;100.00;100835.31;4991163;28;20034;-91
2022/09/09 09:53:53;;;;;;;24.73;4.82;;;;;;;18.54;100.00;100859.66;5001604;28;20049;-92
2022/09/09 09:56:34;;;;;;;19.73;4.22;;;;;;;18.73;100.00;100861.88;4998758;28;20058;-92
2022/09/09 09:59:34;;;;;;;20.17;4.63;;;;;;;18.56;100.00;100868.34;4976599;28;20050;-93
2022/09/09 10:02:25;;;;;;;20.02;4.28;;;;;;;18.56;100.00;100867.50;5002780;28;20030;-91
2022/09/09 10:05:19;;;;;;;19.75;4.85;;;;;;;18.49;100.00;100877.66;4998067;28;20042;-92
2022/09/09 10:08:12;;;;;;;23.50;4.70;;;;;;;18.75;100.00;100875.00;4998949;28;20046;-92
2022/09/09 10:10:59;;;;;;;24.70;4.53;;;;;;;18.58;100.00;100847.88;4997206;28;20085;-92
2022/09/09 10:13:58;;;;;;;26.90;4.75;;;;;;;18.52;100.00;100893.38;4990534;28;20054;-90
2022/09/09 10:16:52;;;;;;;23.60;4.75;;;;;;;18.26;100.00;100884.53;4995244;28;20062;-91
2022/09/09 10:19:31;;;;;;;25.87;3.50;;;;;;;18.11;100.00;100880.25;4987338;28;20050;-91
2022/09/09 10:22:27;;;;;;;21.75;4.25;;;;;;;18.01;100.00;100846.44;4986340;28;20050;-90
2022/09/09 10:25:20;;;;;;;19.13;3.83;;;;;;;18.18;100.00;100871.81;4976667;28;20112;-92
2022/09/09 10:28:27;;;;;;;20.70;3.83;;;;;;;18.07;100.00;100887.56;4989936;28;20145;-92
2022/09/09 10:31:23;;;;;;;17.58;3.85;;;;;;;18.08;100.00;100838.06;4995140;28;20058;-93
2022/09/09 10:34:35;;;;;;;23.83;5.00;;;;;;;18.19;100.00;100868.19;4995578;28;20069;-93
2022/09/09 10:37:45;;;;;;;24.90;4.63;;;;;;;18.25;100.00;100848.38;4995203;28;20081;-93
2022/09/09 10:40:44;;;;;;;23.38;4.63;;;;;;;18.10;100.00;100865.34;4995282;28;20085;-93
2022/09/09 10:43:43;;;;;;;19.23;3.92;;;;;;;18.26;100.00;100889.84;4997997;28;20052;-92
2022/09/09 10:46:51;;;;;;;18.95;3.70;;;;;;;18.39;100.00;100897.81;5015288;28;20124;-93
2022/09/09 10:49:35;;;;;;;25.85;4.43;;;;;;;18.39;100.00;100893.34;4973463;28;20057;-93
2022/09/09 10:52:15;;;;;;;20.83;3.80;;;;;;;18.37;100.00;100865.25;4970491;28;20134;-94
2022/09/09 10:54:59;;;;;;;22.98;4.50;;;;;;;18.42;100.00;100896.75;4981452;28;20058;-93
2022/09/09 10:57:42;;;;;;;17.37;4.20;;;;;;;18.25;100.00;100900.53;4989190;28;20050;-93
2022/09/09 11:00:29;;;;;;;21.77;3.58;;;;;;;18.07;100.00;100902.63;4991200;28;20065;-93
2022/09/09 11:03:19;;;;;;;23.42;4.35;;;;;;;18.04;100.00;100858.63;4970450;28;20082;-93
2022/09/09 11:06:09;;;;;;;21.23;4.15;;;;;;;18.35;100.00;100877.78;4984976;28;20043;-93
2022/09/09 11:08:52;;;;;;;19.02;3.90;;;;;;;18.26;100.00;100866.00;4976431;28;20085;-92
2022/09/09 11:11:45;;;;;;;20.05;4.07;;;;;;;18.77;100.00;100910.25;4990349;28;20053;-93
2022/09/09 11:14:25;;;;;;;15.52;3.33;;;;;;;18.69;100.00;100894.84;5006199;28;20057;-93
2022/09/09 11:17:27;;;;;;;23.38;4.63;;;;;;;18.81;100.00;100902.94;4990954;28;20094;-93
2022/09/09 11:20:12;;;;;;;23.85;4.05;;;;;;;18.77;100.00;100865.16;4988987;28;20060;-92
2022/09/09 11:23:00;;;;;;;23.75;4.75;;;;;;;18.95;100.00;100916.94;4988723;28;20073;-93
2022/09/09 11:25:47;;;;;;;21.60;4.28;;;;;;;19.03;100.00;100921.72;4988848;28;20141;-93
2022/09/09 11:29:18;;;;;;;23.40;5.47;;;;;;;19.16;100.00;100905.78;4973547;28;20078;-93
2022/09/09 11:32:20;;;;;;;18.45;4.30;;;;;;;19.30;100.00;100915.41;4940837;28;20058;-93
2022/09/09 11:35:07;;;;;;;24.55;5.28;;;;;;;19.73;100.00;100923.81;4981018;28;20054;-93
2022/09/09 11:37:50;;;;;;;19.23;3.92;;;;;;;19.54;100.00;100921.59;4987707;28;20050;-92
2022/09/09 11:40:27;;;;;;;23.30;5.13;;;;;;;19.05;100.00;100895.06;4986501;28;20054;-93
2022/09/09 11:43:14;;;;;;;20.05;4.10;;;;;;;19.51;100.00;100924.50;4984941;28;20137;-93
2022/09/09 11:45:49;;;;;;;19.58;4.07;;;;;;;19.32;100.00;100892.28;4983714;28;20061;-93
2022/09/09 11:48:46;;;;;;;22.33;4.30;;;;;;;19.04;100.00;100898.69;4988414;28;20054;-93
2022/09/09 11:51:30;;;;;;;20.48;3.92;;;;;;;18.73;100.00;100911.41;4979377;28;20472;-93
2022/09/09 11:54:20;;;;;;;20.00;3.78;;;;;;;19.13;100.00;100935.19;4978456;28;20065;-92
2022/09/09 11:57:04;;;;;;;21.92;4.00;;;;;;;18.74;100.00;100895.38;5001340;28;20055;-92
2022/09/09 11:59:32;;;;;;;19.38;3.90;;;;;;;18.35;100.00;100806.22;5005216;28;20042;-93
2022/09/09 12:02:22;;;;;;;19.42;3.47;;;;;;;19.30;100.00;100881.75;4987653;28;20133;-93